Time;durP1;ratioP1;P1;durP2;ratioP2;P2;SDS_P1;SDS_P2;PMS_P1;PMS_P2;Temp;Humidity;BMP_temperature;BMP_pressure;BME280_temperature;BME280_humidity;BME280_pressure;Samples;Min_cycle;Max_cycle;Signal;HPM_P1;HPM_P2
2023/08/02 00:00:36;;;;;;;2.13;1.33;;;;;;;;;;5070377;28;20071;-86
2023/08/02 00:03:02;;;;;;;3.90;1.38;;;;;;;;;;5060376;28;20047;-85
2023/08/02 00:05:28;;;;;;;1.65;1.20;;;;;;;;;;5053677;28;20100;-84
2023/08/02 00:07:54;;;;;;;3.40;1.40;;;;;;;;;;5057565;28;20353;-83
2023/08/02 00:10:19;;;;;;;1.60;1.20;;;;;;;;;;5070808;28;20504;-83
2023/08/02 00:12:45;;;;;;;3.05;1.27;;;;;;;;;;5069032;28;20558;-84
2023/08/02 00:15:10;;;;;;;2.25;1.20;;;;;;;;;;5059538;28;20040;-83
2023/08/02 00:17:36;;;;;;;2.92;1.30;;;;;;;;;;5049603;28;20059;-84
2023/08/02 00:20:01;;;;;;;2.58;1.35;;;;;;;;;;5072597;28;20533;-84
2023/08/02 00:22:27;;;;;;;2.10;1.13;;;;;;;;;;5070978;28;20045;-85
2023/08/02 00:24:52;;;;;;;2.38;1.42;;;;;;;;;;5057957;28;20564;-84
2023/08/02 00:27:17;;;;;;;4.25;1.35;;;;;;;;;;5047394;28;20038;-84
2023/08/02 00:29:43;;;;;;;1.95;1.20;;;;;;;;;;5062598;28;20029;-84
2023/08/02 00:32:08;;;;;;;2.40;1.15;;;;;;;;;;5073716;28;20025;-84
2023/08/02 00:34:34;;;;;;;2.40;1.30;;;;;;;;;;5067541;28;20108;-85
2023/08/02 00:37:01;;;;;;;2.42;1.20;;;;;;;;;;5044323;28;20061;-85
2023/08/02 00:39:26;;;;;;;2.47;1.17;;;;;;;;;;5054093;28;20036;-85
2023/08/02 00:41:52;;;;;;;3.63;1.30;;;;;;;;;;5066143;28;20036;-84
2023/08/02 00:44:17;;;;;;;2.20;1.20;;;;;;;;;;5051267;28;20533;-84
2023/08/02 00:46:43;;;;;;;2.70;1.40;;;;;;;;;;5045596;28;20028;-84
2023/08/02 00:49:09;;;;;;;3.22;1.25;;;;;;;;;;5063214;28;20024;-84
2023/08/02 00:51:35;;;;;;;6.95;1.48;;;;;;;;;;5055870;28;20071;-85
2023/08/02 00:54:02;;;;;;;3.45;1.50;;;;;;;;;;5062404;28;20036;-85
2023/08/02 00:56:31;;;;;;;2.80;1.40;;;;;;;;;;5058666;28;20033;-85
2023/08/02 00:58:58;;;;;;;2.15;1.10;;;;;;;;;;5065428;28;20493;-85
2023/08/02 01:01:24;;;;;;;2.53;1.30;;;;;;;;;;5061906;28;20041;-85
2023/08/02 01:03:51;;;;;;;3.17;1.10;;;;;;;;;;5063337;28;20088;-85
2023/08/02 01:06:49;;;;;;;3.67;1.30;;;;;;;;;;5067365;28;20037;-85
2023/08/02 01:09:31;;;;;;;3.10;1.20;;;;;;;;;;5060224;28;20052;-85
2023/08/02 01:12:08;;;;;;;3.72;1.40;;;;;;;;;;5049699;28;20033;-84
2023/08/02 01:14:41;;;;;;;2.90;1.40;;;;;;;;;;5070305;28;20095;-85
2023/08/02 01:17:08;;;;;;;4.13;1.33;;;;;;;;;;5071145;28;20100;-84
2023/08/02 01:19:34;;;;;;;3.53;1.25;;;;;;;;;;5044377;28;20033;-86
2023/08/02 01:21:59;;;;;;;3.17;1.20;;;;;;;;;;5063089;28;20037;-83
2023/08/02 01:24:32;;;;;;;2.03;1.25;;;;;;;;;;5065618;28;20039;-85
2023/08/02 01:27:20;;;;;;;3.30;1.20;;;;;;;;;;5066954;28;20033;-85
2023/08/02 01:29:49;;;;;;;3.70;1.35;;;;;;;;;;5064962;28;20048;-85
2023/08/02 01:32:16;;;;;;;2.30;1.20;;;;;;;;;;5068630;28;20036;-85
2023/08/02 01:34:42;;;;;;;1.65;1.17;;;;;;;;;;5066846;28;20033;-84
2023/08/02 01:37:08;;;;;;;2.78;1.13;;;;;;;;;;5048948;28;20068;-85
2023/08/02 01:39:33;;;;;;;1.20;1.10;;;;;;;;;;5054109;28;20040;-85
2023/08/02 01:42:01;;;;;;;1.98;1.27;;;;;;;;;;5069933;28;20391;-85
2023/08/02 01:44:26;;;;;;;2.08;1.20;;;;;;;;;;5060700;28;20675;-84
2023/08/02 01:46:52;;;;;;;1.45;1.00;;;;;;;;;;5051159;28;20032;-84
2023/08/02 01:49:18;;;;;;;1.63;1.10;;;;;;;;;;5042894;28;20029;-84
2023/08/02 01:51:43;;;;;;;1.75;1.10;;;;;;;;;;5065540;28;20040;-83
2023/08/02 01:54:09;;;;;;;1.77;1.10;;;;;;;;;;5065748;28;20032;-85
2023/08/02 01:56:34;;;;;;;2.08;1.20;;;;;;;;;;5062807;28;20033;-85
2023/08/02 01:59:00;;;;;;;2.13;1.20;;;;;;;;;;5057036;28;20087;-85
2023/08/02 02:01:25;;;;;;;3.03;1.10;;;;;;;;;;5058026;28;20029;-84
2023/08/02 02:03:51;;;;;;;2.42;1.38;;;;;;;;;;5070173;28;20032;-84
2023/08/02 02:06:16;;;;;;;3.20;1.30;;;;;;;;;;5063796;28;20391;-84
2023/08/02 02:08:42;;;;;;;3.28;1.20;;;;;;;;;;5058561;28;20056;-84
2023/08/02 02:11:07;;;;;;;2.95;1.25;;;;;;;;;;5060754;28;20096;-85
2023/08/02 02:13:33;;;;;;;2.55;1.15;;;;;;;;;;5044649;28;20037;-85
2023/08/02 02:15:59;;;;;;;1.73;1.10;;;;;;;;;;5064468;28;20029;-85
2023/08/02 02:18:24;;;;;;;2.22;1.30;;;;;;;;;;5057956;28;20021;-84
2023/08/02 02:20:50;;;;;;;3.15;1.35;;;;;;;;;;5047194;28;20107;-83
2023/08/02 02:23:15;;;;;;;2.00;1.13;;;;;;;;;;5059979;28;20033;-84
2023/08/02 02:25:41;;;;;;;2.47;1.20;;;;;;;;;;5061308;28;20037;-84
2023/08/02 02:28:06;;;;;;;4.35;1.30;;;;;;;;;;5059928;28;20029;-85
2023/08/02 02:30:32;;;;;;;2.72;1.55;;;;;;;;;;5069668;28;20055;-84
2023/08/02 02:32:58;;;;;;;4.45;1.30;;;;;;;;;;5058031;28;20040;-84
2023/08/02 02:35:23;;;;;;;3.60;1.20;;;;;;;;;;5060389;28;20029;-83
2023/08/02 02:37:50;;;;;;;2.55;1.20;;;;;;;;;;5063357;28;20090;-83
2023/08/02 02:40:15;;;;;;;3.22;1.20;;;;;;;;;;5068318;28;20035;-84
2023/08/02 02:42:41;;;;;;;1.83;1.40;;;;;;;;;;5058821;28;20028;-83
2023/08/02 02:45:08;;;;;;;3.50;1.30;;;;;;;;;;5050091;28;20033;-84
2023/08/02 02:47:34;;;;;;;2.15;1.30;;;;;;;;;;5060950;28;20064;-84
2023/08/02 02:49:59;;;;;;;3.40;1.30;;;;;;;;;;5070040;28;20048;-84
2023/08/02 02:52:25;;;;;;;1.67;1.23;;;;;;;;;;5059888;28;20622;-84
2023/08/02 02:54:50;;;;;;;1.50;1.30;;;;;;;;;;5057656;28;20040;-84
2023/08/02 02:57:16;;;;;;;1.65;1.25;;;;;;;;;;5058866;28;20036;-84
2023/08/02 02:59:43;;;;;;;1.98;1.30;;;;;;;;;;5054381;28;20097;-84
2023/08/02 03:02:08;;;;;;;2.55;1.25;;;;;;;;;;5060138;28;20048;-84
2023/08/02 03:04:34;;;;;;;2.58;1.40;;;;;;;;;;5070280;28;20038;-84
2023/08/02 03:06:59;;;;;;;3.65;1.17;;;;;;;;;;5044005;28;20029;-84
2023/08/02 03:09:25;;;;;;;2.15;1.27;;;;;;;;;;5044093;28;20523;-84
2023/08/02 03:11:50;;;;;;;1.83;1.13;;;;;;;;;;5048548;28;20488;-83
2023/08/02 03:14:16;;;;;;;4.03;1.20;;;;;;;;;;5069373;28;20460;-82
2023/08/02 03:16:44;;;;;;;3.08;1.30;;;;;;;;;;5058573;28;20109;-82
2023/08/02 03:19:12;;;;;;;2.10;1.17;;;;;;;;;;5049406;28;20574;-84
2023/08/02 03:21:38;;;;;;;2.25;1.20;;;;;;;;;;5045870;28;20029;-85
2023/08/02 03:24:04;;;;;;;1.92;1.10;;;;;;;;;;5066374;28;20057;-85
2023/08/02 03:26:30;;;;;;;3.13;1.02;;;;;;;;;;5061861;28;20033;-85
2023/08/02 03:28:55;;;;;;;2.78;1.02;;;;;;;;;;5053533;28;20033;-85
2023/08/02 03:31:21;;;;;;;3.95;1.38;;;;;;;;;;5044801;28;20125;-83
2023/08/02 03:33:46;;;;;;;4.15;1.30;;;;;;;;;;5052222;28;20024;-84
2023/08/02 03:36:12;;;;;;;2.13;1.40;;;;;;;;;;5063613;28;20072;-84
2023/08/02 03:38:37;;;;;;;2.65;1.35;;;;;;;;;;5056523;28;20500;-84
2023/08/02 03:41:03;;;;;;;6.60;1.30;;;;;;;;;;5049681;28;20046;-85
2023/08/02 03:43:28;;;;;;;3.15;1.30;;;;;;;;;;5057812;28;20037;-85
2023/08/02 03:45:54;;;;;;;1.88;1.10;;;;;;;;;;5052896;28;20038;-85
2023/08/02 03:48:20;;;;;;;2.58;1.25;;;;;;;;;;5059480;28;20021;-83
2023/08/02 03:50:45;;;;;;;2.30;1.20;;;;;;;;;;5056408;28;20029;-83
2023/08/02 03:53:11;;;;;;;1.27;1.00;;;;;;;;;;5060350;28;20053;-84
2023/08/02 03:55:36;;;;;;;3.45;1.30;;;;;;;;;;5052697;28;20025;-83
2023/08/02 03:58:02;;;;;;;1.52;1.13;;;;;;;;;;5049419;28;20064;-83
2023/08/02 04:00:27;;;;;;;2.15;1.10;;;;;;;;;;5054492;28;20048;-85
2023/08/02 04:02:55;;;;;;;2.95;1.40;;;;;;;;;;5063465;28;20514;-85
2023/08/02 04:05:20;;;;;;;2.58;1.40;;;;;;;;;;5054538;28;20036;-83
2023/08/02 04:07:45;;;;;;;2.53;1.15;;;;;;;;;;5046539;28;20033;-84
2023/08/02 04:10:11;;;;;;;3.60;1.20;;;;;;;;;;5042351;28;20040;-84
2023/08/02 04:12:36;;;;;;;2.10;1.20;;;;;;;;;;5065193;28;20029;-84
2023/08/02 04:15:03;;;;;;;5.32;1.23;;;;;;;;;;5059765;28;20028;-84
2023/08/02 04:17:28;;;;;;;2.50;1.30;;;;;;;;;;5051650;28;20026;-84
2023/08/02 04:19:54;;;;;;;4.28;1.20;;;;;;;;;;5057310;28;20417;-85
2023/08/02 04:22:20;;;;;;;2.30;1.38;;;;;;;;;;5063987;28;20092;-84
2023/08/02 04:24:47;;;;;;;2.65;1.20;;;;;;;;;;5064159;28;20041;-84
2023/08/02 04:27:12;;;;;;;3.38;1.27;;;;;;;;;;5051637;28;20128;-84
2023/08/02 04:29:37;;;;;;;1.73;1.20;;;;;;;;;;5055198;28;20071;-84
2023/08/02 04:32:04;;;;;;;2.90;1.30;;;;;;;;;;5061644;28;20041;-84
2023/08/02 04:34:30;;;;;;;4.57;1.20;;;;;;;;;;5062602;28;20483;-84
2023/08/02 04:36:55;;;;;;;4.10;1.33;;;;;;;;;;5065175;28;20492;-85
2023/08/02 04:39:20;;;;;;;2.13;1.25;;;;;;;;;;5064521;28;20049;-85
2023/08/02 04:41:46;;;;;;;3.35;1.30;;;;;;;;;;5053985;28;20497;-84
2023/08/02 04:44:11;;;;;;;2.67;1.20;;;;;;;;;;5051667;28;20144;-84
2023/08/02 04:46:37;;;;;;;3.30;1.30;;;;;;;;;;5070942;28;20040;-84
2023/08/02 04:49:02;;;;;;;2.45;1.20;;;;;;;;;;5068156;28;20115;-85
2023/08/02 04:51:28;;;;;;;3.90;1.40;;;;;;;;;;5051001;28;20028;-84
2023/08/02 04:53:54;;;;;;;2.20;1.30;;;;;;;;;;5049589;28;20033;-84
2023/08/02 04:56:19;;;;;;;2.97;1.30;;;;;;;;;;5063836;28;20131;-84
2023/08/02 04:58:45;;;;;;;4.00;1.35;;;;;;;;;;5059110;28;20028;-83
2023/08/02 05:01:11;;;;;;;2.58;1.38;;;;;;;;;;5050176;28;20113;-83
2023/08/02 05:03:36;;;;;;;3.17;1.40;;;;;;;;;;5062160;28;20037;-83
2023/08/02 05:06:03;;;;;;;1.75;1.27;;;;;;;;;;5051813;28;20389;-83
2023/08/02 05:08:33;;;;;;;2.65;1.20;;;;;;;;;;5060702;28;20707;-84
2023/08/02 05:10:58;;;;;;;3.40;1.17;;;;;;;;;;5060717;28;20391;-84
2023/08/02 05:13:25;;;;;;;2.95;1.33;;;;;;;;;;5060583;28;20105;-84
2023/08/02 05:15:52;;;;;;;3.00;1.27;;;;;;;;;;5049424;28;20405;-83
2023/08/02 05:18:17;;;;;;;3.22;1.25;;;;;;;;;;5047273;28;20143;-84
2023/08/02 05:20:43;;;;;;;2.90;1.30;;;;;;;;;;5070234;28;20509;-83
2023/08/02 05:23:08;;;;;;;2.92;1.50;;;;;;;;;;5058027;28;20468;-84
2023/08/02 05:25:37;;;;;;;1.60;1.20;;;;;;;;;;5048858;28;20040;-84
2023/08/02 05:28:02;;;;;;;3.35;1.30;;;;;;;;;;5052944;28;20090;-83
2023/08/02 05:30:29;;;;;;;3.75;1.40;;;;;;;;;;5060386;28;20083;-84
2023/08/02 05:32:55;;;;;;;2.60;1.02;;;;;;;;;;5054646;28;20045;-84
2023/08/02 05:35:21;;;;;;;1.63;1.20;;;;;;;;;;5058034;28;20043;-83
2023/08/02 05:37:47;;;;;;;2.20;1.10;;;;;;;;;;5057400;28;20033;-84
2023/08/02 05:40:12;;;;;;;2.50;1.30;;;;;;;;;;5048418;28;20164;-84
2023/08/02 05:42:38;;;;;;;3.15;1.30;;;;;;;;;;5056489;28;20037;-83
2023/08/02 05:45:04;;;;;;;1.75;1.20;;;;;;;;;;5066282;28;20339;-83
2023/08/02 05:47:30;;;;;;;1.60;1.30;;;;;;;;;;5063218;28;20033;-83
2023/08/02 05:49:56;;;;;;;2.17;1.23;;;;;;;;;;5058030;28;20041;-83
2023/08/02 05:52:22;;;;;;;1.90;1.13;;;;;;;;;;5049217;28;20095;-83
2023/08/02 05:54:47;;;;;;;3.45;1.40;;;;;;;;;;5068372;28;20505;-83
2023/08/02 05:57:13;;;;;;;1.58;1.20;;;;;;;;;;5059227;28;20030;-83
2023/08/02 05:59:38;;;;;;;1.95;1.40;;;;;;;;;;5047474;28;20493;-83
2023/08/02 06:02:05;;;;;;;2.33;1.20;;;;;;;;;;5057512;28;20037;-83
2023/08/02 06:04:34;;;;;;;1.77;1.30;;;;;;;;;;5061262;28;20041;-84
2023/08/02 06:06:59;;;;;;;1.73;1.20;;;;;;;;;;5059307;28;20033;-84
2023/08/02 06:09:25;;;;;;;2.60;1.25;;;;;;;;;;5065328;28;20048;-83
2023/08/02 06:11:50;;;;;;;2.05;1.20;;;;;;;;;;5062291;28;20082;-82
2023/08/02 06:14:16;;;;;;;1.92;1.20;;;;;;;;;;5052805;28;20093;-83
2023/08/02 06:16:41;;;;;;;3.60;1.25;;;;;;;;;;5060419;28;20053;-84
2023/08/02 06:19:07;;;;;;;4.25;1.55;;;;;;;;;;5073972;28;20040;-83
2023/08/02 06:21:34;;;;;;;1.80;1.30;;;;;;;;;;5069954;28;20037;-84
2023/08/02 06:24:00;;;;;;;1.88;1.20;;;;;;;;;;5056816;28;20512;-83
2023/08/02 06:26:25;;;;;;;1.48;1.08;;;;;;;;;;5062349;28;20032;-84
2023/08/02 06:28:51;;;;;;;3.92;1.20;;;;;;;;;;5069670;28;20052;-84
2023/08/02 06:31:16;;;;;;;2.70;1.20;;;;;;;;;;5060235;28;20034;-82
2023/08/02 06:33:42;;;;;;;2.83;1.30;;;;;;;;;;5058225;28;20052;-83
2023/08/02 06:36:07;;;;;;;1.42;1.10;;;;;;;;;;5060336;28;20033;-83
2023/08/02 06:38:32;;;;;;;2.70;1.30;;;;;;;;;;5061408;28;20040;-83
2023/08/02 06:40:58;;;;;;;2.13;1.35;;;;;;;;;;5062621;28;20408;-84
2023/08/02 06:43:23;;;;;;;2.55;1.20;;;;;;;;;;5068982;28;20037;-83
2023/08/02 06:45:49;;;;;;;3.33;1.20;;;;;;;;;;5048669;28;20041;-83
2023/08/02 06:48:19;;;;;;;1.63;1.25;;;;;;;;;;5048994;28;20036;-82
2023/08/02 06:50:44;;;;;;;2.00;1.23;;;;;;;;;;5058939;28;20083;-83
2023/08/02 06:53:10;;;;;;;1.83;1.20;;;;;;;;;;5069908;28;20017;-83
2023/08/02 06:55:35;;;;;;;4.35;1.30;;;;;;;;;;5057257;28;20040;-83
2023/08/02 06:58:01;;;;;;;1.90;1.20;;;;;;;;;;5046787;28;20079;-84
2023/08/02 07:00:29;;;;;;;1.80;1.20;;;;;;;;;;5061183;28;20029;-83
2023/08/02 07:03:01;;;;;;;3.30;1.50;;;;;;;;;;5073605;28;20033;-87
2023/08/02 07:05:30;;;;;;;1.80;1.15;;;;;;;;;;5062308;28;20040;-85
2023/08/02 07:07:57;;;;;;;4.65;1.23;;;;;;;;;;5066008;28;20401;-85
2023/08/02 07:10:24;;;;;;;2.50;1.30;;;;;;;;;;5064423;28;20100;-86
2023/08/02 07:12:49;;;;;;;2.20;1.30;;;;;;;;;;5067838;28;20063;-84
2023/08/02 07:15:15;;;;;;;2.00;1.13;;;;;;;;;;5072239;28;20036;-85
2023/08/02 07:17:41;;;;;;;1.45;1.20;;;;;;;;;;5076620;28;20039;-86
2023/08/02 07:20:08;;;;;;;1.90;1.35;;;;;;;;;;5064519;28;20035;-86
2023/08/02 07:22:33;;;;;;;3.00;1.30;;;;;;;;;;5064417;28;20068;-86
2023/08/02 07:24:59;;;;;;;8.70;1.30;;;;;;;;;;5070062;28;20037;-86
2023/08/02 07:27:24;;;;;;;2.25;1.20;;;;;;;;;;5077223;28;20124;-85
2023/08/02 07:29:51;;;;;;;2.95;1.40;;;;;;;;;;5064962;28;20504;-86
2023/08/02 07:32:17;;;;;;;2.08;1.20;;;;;;;;;;5055767;28;20029;-86
2023/08/02 07:34:42;;;;;;;2.85;1.30;;;;;;;;;;5068733;28;20519;-86
2023/08/02 07:37:08;;;;;;;1.50;1.20;;;;;;;;;;5071618;28;20049;-85
2023/08/02 07:39:33;;;;;;;3.92;1.30;;;;;;;;;;5063327;28;20105;-87
2023/08/02 07:41:58;;;;;;;2.20;1.25;;;;;;;;;;5071024;28;20374;-86
2023/08/02 07:44:24;;;;;;;3.65;1.30;;;;;;;;;;5055035;28;20036;-84
2023/08/02 07:46:50;;;;;;;2.78;1.20;;;;;;;;;;5060476;28;20063;-86
2023/08/02 07:49:16;;;;;;;1.98;1.20;;;;;;;;;;5070521;28;20045;-86
2023/08/02 07:51:41;;;;;;;2.47;1.30;;;;;;;;;;5072761;28;20041;-85
2023/08/02 07:54:07;;;;;;;2.17;1.20;;;;;;;;;;5061145;28;20039;-86
2023/08/02 07:56:33;;;;;;;2.00;1.40;;;;;;;;;;5052073;28;20033;-85
2023/08/02 07:58:58;;;;;;;2.17;1.40;;;;;;;;;;5074917;28;20044;-86
2023/08/02 08:01:24;;;;;;;2.20;1.40;;;;;;;;;;5070115;28;20032;-85
2023/08/02 08:03:49;;;;;;;2.10;1.40;;;;;;;;;;5060612;28;20093;-86
2023/08/02 08:06:16;;;;;;;2.85;1.33;;;;;;;;;;5063671;28;20033;-86
2023/08/02 08:08:42;;;;;;;2.47;1.35;;;;;;;;;;5064518;28;20036;-86
2023/08/02 08:11:08;;;;;;;1.85;1.30;;;;;;;;;;5074918;28;20051;-84
2023/08/02 08:13:34;;;;;;;2.25;1.27;;;;;;;;;;5066068;28;20195;-85
2023/08/02 08:16:00;;;;;;;2.58;1.35;;;;;;;;;;5072218;28;20123;-85
2023/08/02 08:18:26;;;;;;;1.65;1.23;;;;;;;;;;5058381;28;20630;-85
2023/08/02 08:20:52;;;;;;;2.13;1.20;;;;;;;;;;5063513;28;20098;-84
2023/08/02 08:23:17;;;;;;;1.67;1.25;;;;;;;;;;5061349;28;20450;-85
2023/08/02 08:25:43;;;;;;;3.65;1.40;;;;;;;;;;5070585;28;20068;-87
2023/08/02 08:28:08;;;;;;;4.25;1.50;;;;;;;;;;5062981;28;20029;-84
2023/08/02 08:30:34;;;;;;;2.55;1.50;;;;;;;;;;5054538;28;20037;-86
2023/08/02 08:32:59;;;;;;;3.63;1.50;;;;;;;;;;5061642;28;20116;-87
2023/08/02 08:35:25;;;;;;;2.38;1.20;;;;;;;;;;5074339;28;20036;-85
2023/08/02 08:37:52;;;;;;;1.73;1.30;;;;;;;;;;5053543;28;20021;-84
2023/08/02 08:40:19;;;;;;;1.65;1.30;;;;;;;;;;5057310;28;20460;-84
2023/08/02 08:42:52;;;;;;;2.95;1.35;;;;;;;;;;5048226;28;20025;-84
2023/08/02 08:45:20;;;;;;;2.75;1.50;;;;;;;;;;5071920;28;20025;-84
2023/08/02 08:47:46;;;;;;;2.25;1.45;;;;;;;;;;5068932;28;20044;-84
2023/08/02 08:50:12;;;;;;;2.85;1.10;;;;;;;;;;5060109;28;20689;-84
2023/08/02 08:52:40;;;;;;;3.20;1.40;;;;;;;;;;5049012;28;20052;-84
2023/08/02 08:55:08;;;;;;;2.33;1.30;;;;;;;;;;5062836;28;20026;-86
2023/08/02 08:57:35;;;;;;;2.40;1.50;;;;;;;;;;5077183;28;20061;-85
2023/08/02 09:00:03;;;;;;;2.65;1.70;;;;;;;;;;5067037;28;20048;-84
2023/08/02 09:02:31;;;;;;;1.75;1.33;;;;;;;;;;5065818;28;20143;-85
2023/08/02 09:04:57;;;;;;;2.40;1.33;;;;;;;;;;5072268;28;20037;-84
2023/08/02 09:07:23;;;;;;;2.75;1.35;;;;;;;;;;5066109;28;20040;-84
2023/08/02 09:09:48;;;;;;;4.43;1.50;;;;;;;;;;5067684;28;20033;-85
2023/08/02 09:12:14;;;;;;;6.30;1.67;;;;;;;;;;5077708;28;20828;-85
2023/08/02 09:15:00;;;;;;;2.33;1.23;;;;;;;;;;5068381;28;20549;-84
2023/08/02 09:17:26;;;;;;;2.08;1.40;;;;;;;;;;5053030;28;20083;-87
2023/08/02 09:20:06;;;;;;;2.17;1.60;;;;;;;;;;5071978;28;20056;-88
2023/08/02 09:22:32;;;;;;;1.48;1.30;;;;;;;;;;5073268;28;20037;-86
2023/08/02 09:24:57;;;;;;;2.50;1.20;;;;;;;;;;5062596;28;20068;-85
2023/08/02 09:27:23;;;;;;;2.22;1.33;;;;;;;;;;5062184;28;20462;-86
2023/08/02 09:29:50;;;;;;;2.55;1.50;;;;;;;;;;5065045;28;20048;-86
2023/08/02 09:32:16;;;;;;;3.78;1.33;;;;;;;;;;5068647;28;20025;-84
2023/08/02 09:34:57;;;;;;;2.47;1.45;;;;;;;;;;5068812;28;20027;-87
2023/08/02 09:37:34;;;;;;;1.80;1.60;;;;;;;;;;5065141;28;20037;-90
2023/08/02 09:40:01;;;;;;;2.22;1.48;;;;;;;;;;5055886;28;20045;-87
2023/08/02 09:42:27;;;;;;;2.65;1.30;;;;;;;;;;5067372;28;20040;-87
2023/08/02 09:45:02;;;;;;;2.28;1.40;;;;;;;;;;5067561;28;20052;-88
2023/08/02 09:47:28;;;;;;;2.30;1.20;;;;;;;;;;5064083;28;20037;-88
2023/08/02 09:50:10;;;;;;;2.25;1.40;;;;;;;;;;5056560;28;20033;-88
2023/08/02 09:52:40;;;;;;;3.03;1.55;;;;;;;;;;5051372;28;20085;-88
2023/08/02 09:55:07;;;;;;;3.33;1.50;;;;;;;;;;5069579;28;20032;-86
2023/08/02 09:57:33;;;;;;;1.77;1.30;;;;;;;;;;5059242;28;20489;-88
2023/08/02 10:00:06;;;;;;;2.15;1.40;;;;;;;;;;5050308;28;20037;-88
2023/08/02 10:02:41;;;;;;;4.83;1.50;;;;;;;;;;5053408;28;20037;-88
2023/08/02 10:05:12;;;;;;;2.40;1.35;;;;;;;;;;5061048;28;20037;-87
2023/08/02 10:07:47;;;;;;;2.00;1.40;;;;;;;;;;5056423;28;20493;-86
2023/08/02 10:10:21;;;;;;;2.00;1.40;;;;;;;;;;5060426;28;20074;-86
2023/08/02 10:12:56;;;;;;;4.20;1.38;;;;;;;;;;5052366;28;20041;-86
2023/08/02 10:15:23;;;;;;;4.30;1.73;;;;;;;;;;5045699;28;20072;-86
2023/08/02 10:17:49;;;;;;;1.92;1.25;;;;;;;;;;5060036;28;20033;-87
2023/08/02 10:20:15;;;;;;;1.80;1.20;;;;;;;;;;5063028;28;20037;-87
2023/08/02 10:22:42;;;;;;;3.55;1.40;;;;;;;;;;5052847;28;20047;-88
2023/08/02 10:25:07;;;;;;;1.65;1.30;;;;;;;;;;5043121;28;20029;-89
2023/08/02 10:27:35;;;;;;;2.30;1.38;;;;;;;;;;5064218;28;20037;-89
2023/08/02 10:30:04;;;;;;;1.70;1.30;;;;;;;;;;5064017;28;20047;-89
2023/08/02 10:32:30;;;;;;;2.05;1.35;;;;;;;;;;5053262;28;20108;-88
2023/08/02 10:34:56;;;;;;;4.05;1.40;;;;;;;;;;5071315;23;20493;-84
2023/08/02 10:37:22;;;;;;;2.80;1.42;;;;;;;;;;5034712;28;20048;-86
2023/08/02 10:39:48;;;;;;;2.63;1.60;;;;;;;;;;5039216;28;20060;-81
2023/08/02 10:42:18;;;;;;;2.58;1.48;;;;;;;;;;5034479;28;20090;-83
2023/08/02 10:44:56;;;;;;;4.03;2.72;;;;;;;;;;5041730;28;20045;-85
2023/08/02 10:47:32;;;;;;;18.42;11.18;;;;;;;;;;5038242;28;20040;-82
2023/08/02 10:50:00;;;;;;;6.63;4.40;;;;;;;;;;5028254;28;20050;-83
2023/08/02 10:52:33;;;;;;;4.68;2.75;;;;;;;;;;5051255;28;20037;-82
2023/08/02 10:55:17;;;;;;;4.63;1.52;;;;;;;;;;5033599;28;20093;-84
2023/08/02 10:57:55;;;;;;;7.68;1.88;;;;;;;;;;5038300;28;20119;-83
2023/08/02 11:00:30;;;;;;;2.00;1.52;;;;;;;;;;5039560;28;20543;-84
2023/08/02 11:02:55;;;;;;;2.80;1.50;;;;;;;;;;5044868;28;20034;-84
2023/08/02 11:05:43;;;;;;;3.78;1.50;;;;;;;;;;5040792;28;20382;-86
2023/08/02 11:08:10;;;;;;;4.93;1.60;;;;;;;;;;5038741;28;20460;-83
2023/08/02 11:10:50;;;;;;;3.55;1.80;;;;;;;;;;5026321;28;20737;-83
2023/08/02 11:13:16;;;;;;;5.28;1.80;;;;;;;;;;5038973;28;20041;-84
2023/08/02 11:15:41;;;;;;;4.20;1.40;;;;;;;;;;5047150;28;20033;-83
2023/08/02 11:18:08;;;;;;;4.22;1.50;;;;;;;;;;5045556;28;20052;-86
2023/08/02 11:20:37;;;;;;;3.15;1.60;;;;;;;;;;5031372;28;20062;-84
2023/08/02 11:23:25;;;;;;;2.88;1.60;;;;;;;;;;5019983;28;20045;-87
2023/08/02 11:25:51;;;;;;;2.30;1.80;;;;;;;;;;5040738;28;20515;-85
2023/08/02 11:28:16;;;;;;;3.20;1.75;;;;;;;;;;5039263;28;20512;-83
2023/08/02 11:30:42;;;;;;;3.03;1.90;;;;;;;;;;5029604;28;20029;-86
2023/08/02 11:33:08;;;;;;;4.38;1.85;;;;;;;;;;5027941;28;20044;-85
2023/08/02 11:35:34;;;;;;;3.22;1.83;;;;;;;;;;5021302;28;20041;-85
2023/08/02 11:38:00;;;;;;;3.08;1.90;;;;;;;;;;5039370;28;20033;-85
2023/08/02 11:40:36;;;;;;;3.60;1.90;;;;;;;;;;5029018;28;20497;-85
2023/08/02 11:43:02;;;;;;;3.88;1.77;;;;;;;;;;5024220;28;20503;-85
2023/08/02 11:45:32;;;;;;;3.65;1.80;;;;;;;;;;5028699;28;20029;-87
2023/08/02 11:47:58;;;;;;;5.88;3.05;;;;;;;;;;5031826;28;20037;-84
2023/08/02 11:50:25;;;;;;;7.85;3.45;;;;;;;;;;5040049;28;20051;-84
2023/08/02 11:52:51;;;;;;;13.00;5.65;;;;;;;;;;5039829;28;20038;-86
2023/08/02 11:55:20;;;;;;;41.05;12.05;;;;;;;;;;5034134;28;20561;-84
2023/08/02 11:57:46;;;;;;;52.97;17.25;;;;;;;;;;5035884;28;20037;-85
2023/08/02 12:00:13;;;;;;;24.30;7.95;;;;;;;;;;5046981;28;20037;-84
2023/08/02 12:02:38;;;;;;;27.20;8.80;;;;;;;;;;5037064;28;20044;-82
2023/08/02 12:05:08;;;;;;;6.57;2.17;;;;;;;;;;5027876;28;20500;-82
2023/08/02 12:07:35;;;;;;;5.68;2.17;;;;;;;;;;5036779;28;20029;-84
2023/08/02 12:10:04;;;;;;;7.22;2.30;;;;;;;;;;5033249;28;20033;-83
2023/08/02 12:12:34;;;;;;;5.80;2.60;;;;;;;;;;5035857;28;20033;-83
2023/08/02 12:15:11;;;;;;;5.22;2.90;;;;;;;;;;5033416;28;20076;-84
2023/08/02 12:17:36;;;;;;;11.00;2.70;;;;;;;;;;5038572;28;20036;-85
2023/08/02 12:20:03;;;;;;;8.18;3.30;;;;;;;;;;5032341;28;20603;-89
2023/08/02 12:22:29;;;;;;;6.68;3.13;;;;;;;;;;5036958;28;20063;-86
2023/08/02 12:25:07;;;;;;;4.05;2.28;;;;;;;;;;5037493;28;20468;-86
2023/08/02 12:27:33;;;;;;;3.30;2.30;;;;;;;;;;5029385;28;20037;-86
2023/08/02 12:30:16;;;;;;;8.90;2.53;;;;;;;;;;5022956;28;20408;-85
2023/08/02 12:32:42;;;;;;;5.82;2.90;;;;;;;;;;5033666;28;20385;-86
2023/08/02 12:35:09;;;;;;;3.70;2.22;;;;;;;;;;5038866;28;20504;-87
2023/08/02 12:37:35;;;;;;;3.88;2.20;;;;;;;;;;5028359;28;20058;-87
2023/08/02 12:40:01;;;;;;;3.65;2.00;;;;;;;;;;5027810;28;20037;-86
2023/08/02 12:42:27;;;;;;;3.55;2.00;;;;;;;;;;5031145;28;20676;-85
2023/08/02 12:44:52;;;;;;;8.10;2.30;;;;;;;;;;5033436;28;20033;-86
2023/08/02 12:47:18;;;;;;;4.22;2.00;;;;;;;;;;5030394;28;20040;-83
2023/08/02 12:49:43;;;;;;;2.45;1.77;;;;;;;;;;5038079;28;20074;-84
2023/08/02 12:52:09;;;;;;;3.85;2.15;;;;;;;;;;5040766;28;20070;-84
2023/08/02 12:54:34;;;;;;;3.45;1.80;;;;;;;;;;5050749;28;20032;-84
2023/08/02 12:57:00;;;;;;;2.42;1.63;;;;;;;;;;5019767;28;20038;-86
2023/08/02 12:59:25;;;;;;;2.65;1.65;;;;;;;;;;5039342;28;20044;-86
2023/08/02 13:01:51;;;;;;;3.10;1.73;;;;;;;;;;5040587;28;20120;-85
2023/08/02 13:04:16;;;;;;;3.30;1.92;;;;;;;;;;5030058;28;20034;-85
2023/08/02 13:06:42;;;;;;;5.82;2.10;;;;;;;;;;5018917;28;20037;-84
2023/08/02 13:09:07;;;;;;;3.40;1.73;;;;;;;;;;5037421;28;20168;-85
2023/08/02 13:11:33;;;;;;;2.55;1.80;;;;;;;;;;5038688;28;20025;-86
2023/08/02 13:13:58;;;;;;;2.47;1.60;;;;;;;;;;5035639;28;20124;-87
2023/08/02 13:16:24;;;;;;;2.90;1.60;;;;;;;;;;5030645;28;20044;-85
2023/08/02 13:18:49;;;;;;;3.13;1.75;;;;;;;;;;5033402;28;20452;-85
2023/08/02 13:21:15;;;;;;;3.15;1.90;;;;;;;;;;5035855;28;20120;-87
2023/08/02 13:23:41;;;;;;;2.38;1.70;;;;;;;;;;5039699;28;20493;-86
2023/08/02 13:26:06;;;;;;;2.60;1.70;;;;;;;;;;5025899;28;20025;-85
2023/08/02 13:28:31;;;;;;;3.67;1.83;;;;;;;;;;5028436;28;20070;-86
2023/08/02 13:30:58;;;;;;;5.60;1.73;;;;;;;;;;5031867;28;20038;-86
2023/08/02 13:33:27;;;;;;;5.18;1.92;;;;;;;;;;5029581;28;20033;-86
2023/08/02 13:35:53;;;;;;;4.75;1.65;;;;;;;;;;5034433;28;20175;-86
2023/08/02 13:38:19;;;;;;;2.38;1.55;;;;;;;;;;5026087;28;20061;-87
2023/08/02 13:40:44;;;;;;;3.03;1.70;;;;;;;;;;5039672;28;20048;-84
2023/08/02 13:43:10;;;;;;;2.08;1.40;;;;;;;;;;5039171;28;20037;-88
2023/08/02 13:45:35;;;;;;;2.38;1.60;;;;;;;;;;5038720;28;20459;-87
2023/08/02 13:48:03;;;;;;;3.05;1.50;;;;;;;;;;5037748;28;20030;-89
2023/08/02 13:50:33;;;;;;;2.75;1.60;;;;;;;;;;5031579;28;20069;-87
2023/08/02 13:52:58;;;;;;;4.00;1.60;;;;;;;;;;5021670;28;20038;-88
2023/08/02 13:55:24;;;;;;;1.67;1.50;;;;;;;;;;5031915;28;20033;-87
2023/08/02 13:57:49;;;;;;;2.45;1.65;;;;;;;;;;5033603;28;20406;-86
2023/08/02 14:00:15;;;;;;;3.60;1.60;;;;;;;;;;5040368;28;20030;-90
2023/08/02 14:02:41;;;;;;;3.63;1.55;;;;;;;;;;5031013;28;20077;-85
2023/08/02 14:05:06;;;;;;;2.03;1.60;;;;;;;;;;5046678;28;20497;-86
2023/08/02 14:07:32;;;;;;;2.40;1.60;;;;;;;;;;5032645;28;20033;-88
2023/08/02 14:09:57;;;;;;;2.60;1.60;;;;;;;;;;5024207;28;20029;-87
2023/08/02 14:12:23;;;;;;;2.88;1.70;;;;;;;;;;5036105;28;20394;-87
2023/08/02 14:14:48;;;;;;;3.58;1.90;;;;;;;;;;5032654;28;20106;-88
2023/08/02 14:17:14;;;;;;;7.00;3.53;;;;;;;;;;5039065;28;20059;-88
2023/08/02 14:19:39;;;;;;;2.30;1.83;;;;;;;;;;5033358;28;20042;-87
2023/08/02 14:22:05;;;;;;;5.03;2.83;;;;;;;;;;5044260;28;20388;-89
2023/08/02 14:24:30;;;;;;;3.85;1.95;;;;;;;;;;5026288;28;20034;-88
2023/08/02 14:26:56;;;;;;;4.05;2.20;;;;;;;;;;5028162;28;20066;-83
2023/08/02 14:29:23;;;;;;;2.72;1.90;;;;;;;;;;5044918;28;20520;-84
2023/08/02 14:31:48;;;;;;;4.95;2.10;;;;;;;;;;5039820;28;20139;-85
2023/08/02 14:34:14;;;;;;;4.50;1.95;;;;;;;;;;5021427;28;20053;-84
2023/08/02 14:36:39;;;;;;;2.78;1.83;;;;;;;;;;5026615;28;20045;-85
2023/08/02 14:39:05;;;;;;;3.00;2.05;;;;;;;;;;5041772;28;20033;-84
2023/08/02 14:41:30;;;;;;;2.55;1.88;;;;;;;;;;5034693;28;20037;-85